Time;durP1;ratioP1;P1;durP2;ratioP2;P2;SDS_P1;SDS_P2;PMS_P1;PMS_P2;Temp;Humidity;BMP_temperature;BMP_pressure;BME280_temperature;BME280_humidity;BME280_pressure;Samples;Min_cycle;Max_cycle;Signal;HPM_P1;HPM_P2
2021/04/26 00:02:10;;;;;;;6.32;3.08;;;8.90;42.80;;;;;;5092063;28;20275;-79
2021/04/26 00:04:36;;;;;;;8.88;3.60;;;8.70;43.50;;;;;;5110936;28;20189;-79
2021/04/26 00:07:03;;;;;;;4.70;3.08;;;8.80;43.50;;;;;;5089567;28;20653;-79
2021/04/26 00:09:29;;;;;;;3.88;2.60;;;8.60;44.00;;;;;;5102123;28;20199;-79
2021/04/26 00:11:56;;;;;;;5.22;3.22;;;8.50;44.40;;;;;;5094942;28;20677;-79
2021/04/26 00:14:22;;;;;;;3.63;2.88;;;8.50;44.80;;;;;;5098030;28;20644;-79
2021/04/26 00:16:49;;;;;;;3.63;2.92;;;8.60;44.70;;;;;;5090200;28;20357;-79
2021/04/26 00:19:16;;;;;;;4.53;3.47;;;8.50;44.30;;;;;;5107343;28;20837;-79
2021/04/26 00:21:42;;;;;;;3.47;3.10;;;8.50;44.80;;;;;;5099595;28;20251;-79
2021/04/26 00:24:10;;;;;;;3.63;3.30;;;8.50;44.70;;;;;;5097705;28;20285;-79
2021/04/26 00:26:36;;;;;;;6.03;2.70;;;8.40;45.10;;;;;;5090206;28;20260;-79
2021/04/26 00:29:03;;;;;;;4.40;3.10;;;8.40;44.90;;;;;;5104911;28;20208;-79
2021/04/26 00:31:29;;;;;;;5.88;3.95;;;8.40;44.70;;;;;;5101368;28;20209;-79
2021/04/26 00:33:55;;;;;;;4.85;3.65;;;8.40;44.80;;;;;;5096667;28;20205;-80
2021/04/26 00:36:23;;;;;;;5.28;3.20;;;8.50;44.90;;;;;;5089346;28;20265;-79
2021/04/26 00:38:49;;;;;;;3.75;3.33;;;8.40;45.60;;;;;;5100026;28;20674;-79
2021/04/26 00:41:15;;;;;;;6.07;3.55;;;8.40;45.10;;;;;;5090348;28;20211;-79
2021/04/26 00:43:42;;;;;;;3.60;3.30;;;8.30;45.40;;;;;;5091367;28;20255;-79
2021/04/26 00:46:11;;;;;;;3.63;2.97;;;8.40;45.60;;;;;;5096263;28;20225;-79
2021/04/26 00:48:38;;;;;;;4.88;3.40;;;8.30;45.80;;;;;;5108228;28;20202;-79
2021/04/26 00:51:05;;;;;;;4.63;3.72;;;8.30;46.00;;;;;;5108728;28;20285;-79
2021/04/26 00:53:33;;;;;;;4.00;3.28;;;8.30;46.20;;;;;;5112251;28;20205;-79
2021/04/26 00:56:00;;;;;;;5.05;3.10;;;8.30;46.10;;;;;;5098937;28;20226;-79
2021/04/26 00:58:26;;;;;;;4.18;3.78;;;8.30;46.30;;;;;;5101093;28;20198;-79
2021/04/26 01:00:53;;;;;;;5.80;3.53;;;8.20;46.30;;;;;;5111380;28;20255;-79
2021/04/26 01:03:20;;;;;;;4.40;3.70;;;8.20;46.40;;;;;;5095056;28;20581;-79
2021/04/26 01:05:48;;;;;;;3.05;2.75;;;8.10;46.70;;;;;;5093997;28;21071;-79
2021/04/26 01:08:15;;;;;;;4.15;3.38;;;7.80;47.10;;;;;;5091021;28;20248;-79
2021/04/26 01:10:43;;;;;;;4.57;3.75;;;7.70;47.50;;;;;;5090011;28;20600;-79
2021/04/26 01:13:46;;;;;;;3.10;2.80;;;7.70;47.90;;;;;;5091463;28;20289;-79
2021/04/26 01:16:16;;;;;;;6.78;3.33;;;7.70;48.20;;;;;;4979739;28;20728;-79
2021/04/26 01:18:51;;;;;;;5.78;4.18;;;7.50;48.00;;;;;;5098137;28;20243;-79
2021/04/26 01:21:51;;;;;;;4.15;3.75;;;7.60;48.00;;;;;;5098474;28;20208;-79
2021/04/26 01:24:56;;;;;;;4.35;3.95;;;7.60;48.10;;;;;;5096276;28;20660;-79
2021/04/26 01:27:38;;;;;;;4.78;3.72;;;7.60;48.30;;;;;;5094622;28;20195;-79
2021/04/26 01:30:17;;;;;;;4.13;3.72;;;7.60;48.10;;;;;;5087836;28;20210;-79
2021/04/26 01:32:50;;;;;;;5.05;4.55;;;7.60;49.10;;;;;;5096198;28;20198;-79
2021/04/26 01:35:20;;;;;;;5.00;4.50;;;7.50;48.60;;;;;;5111246;28;20724;-79
2021/04/26 01:37:51;;;;;;;5.65;4.13;;;7.30;48.70;;;;;;5107336;28;20600;-79
2021/04/26 01:40:20;;;;;;;4.72;4.32;;;7.40;49.10;;;;;;5092902;28;20203;-79
2021/04/26 01:42:51;;;;;;;5.50;4.32;;;7.30;49.30;;;;;;5086470;28;20583;-79
2021/04/26 01:45:20;;;;;;;5.18;4.20;;;7.20;49.80;;;;;;5073222;28;20235;-79
2021/04/26 01:47:52;;;;;;;4.75;4.35;;;7.30;49.90;;;;;;5093286;28;20199;-79
2021/04/26 01:50:20;;;;;;;8.30;5.07;;;7.20;49.60;;;;;;5110566;28;20202;-79
2021/04/26 01:52:48;;;;;;;6.60;4.43;;;7.30;49.70;;;;;;5098712;28;20202;-79
2021/04/26 01:55:18;;;;;;;5.70;4.30;;;7.10;50.50;;;;;;5113336;28;20201;-79
2021/04/26 01:57:47;;;;;;;7.18;4.25;;;7.00;50.10;;;;;;5097752;28;20782;-79
2021/04/26 02:00:19;;;;;;;4.82;4.30;;;7.00;50.10;;;;;;5112515;28;20198;-79
2021/04/26 02:02:53;;;;;;;6.00;5.40;;;7.10;50.40;;;;;;5099246;28;20209;-79
2021/04/26 02:05:23;;;;;;;6.68;5.55;;;6.90;51.00;;;;;;5105620;28;20205;-79
2021/04/26 02:07:52;;;;;;;6.85;4.90;;;6.80;50.80;;;;;;5098101;28;20539;-79
2021/04/26 02:10:24;;;;;;;6.80;4.57;;;6.70;51.10;;;;;;5112726;28;20595;-79
2021/04/26 02:12:52;;;;;;;6.63;4.97;;;6.70;51.00;;;;;;5107373;28;20206;-79
2021/04/26 02:15:21;;;;;;;6.40;5.65;;;6.60;51.80;;;;;;5112696;28;20194;-79
2021/04/26 02:17:50;;;;;;;5.57;4.15;;;6.70;51.90;;;;;;5110940;28;20703;-79
2021/04/26 02:20:18;;;;;;;6.43;4.65;;;6.70;51.40;;;;;;5099072;28;20198;-79
2021/04/26 02:22:50;;;;;;;6.95;4.97;;;6.70;51.60;;;;;;5095787;28;20217;-79
2021/04/26 02:25:17;;;;;;;4.70;4.30;;;6.60;51.90;;;;;;5092377;28;20290;-79
2021/04/26 02:27:43;;;;;;;5.60;5.00;;;6.50;52.50;;;;;;5107077;28;20190;-79
2021/04/26 02:30:11;;;;;;;5.80;5.18;;;6.40;52.50;;;;;;5091650;28;20201;-79
2021/04/26 02:32:46;;;;;;;7.03;5.55;;;6.40;52.60;;;;;;5104686;28;20193;-79
2021/04/26 02:35:15;;;;;;;7.97;5.32;;;6.40;52.60;;;;;;5092423;28;20244;-79
2021/04/26 02:37:50;;;;;;;6.65;5.22;;;6.50;52.90;;;;;;5102271;28;20215;-79
2021/04/26 02:40:19;;;;;;;7.28;5.30;;;6.50;52.50;;;;;;5091492;28;20572;-79
2021/04/26 02:42:49;;;;;;;7.38;4.85;;;6.50;51.80;;;;;;5103273;28;20248;-79
2021/04/26 02:45:20;;;;;;;6.00;5.40;;;6.30;51.50;;;;;;5091853;28;20205;-79
2021/04/26 02:47:48;;;;;;;5.75;4.68;;;6.20;51.70;;;;;;5102759;28;20187;-79
2021/04/26 02:50:19;;;;;;;6.70;5.30;;;6.30;51.60;;;;;;5091721;28;20205;-79
2021/04/26 02:52:47;;;;;;;8.27;5.30;;;6.20;51.50;;;;;;5096392;28;20202;-79
2021/04/26 02:55:14;;;;;;;7.20;4.93;;;6.20;51.50;;;;;;5091670;28;20313;-79
2021/04/26 02:57:42;;;;;;;10.23;4.85;;;6.20;51.60;;;;;;5105631;28;20301;-79
2021/04/26 03:00:11;;;;;;;6.35;5.75;;;6.30;51.80;;;;;;5090660;28;20225;-79
2021/04/26 03:02:38;;;;;;;6.32;5.03;;;6.40;51.60;;;;;;5103255;28;20215;-79
2021/04/26 03:05:06;;;;;;;6.88;4.97;;;6.40;51.20;;;;;;5091592;28;20293;-79
2021/04/26 03:07:35;;;;;;;9.20;5.65;;;6.40;51.40;;;;;;5106632;28;20198;-79
2021/04/26 03:10:05;;;;;;;8.65;4.93;;;6.40;51.50;;;;;;5104255;28;20212;-79
2021/04/26 03:12:33;;;;;;;8.70;6.20;;;6.30;51.50;;;;;;5106844;28;20739;-79
2021/04/26 03:15:01;;;;;;;5.93;5.32;;;6.40;51.70;;;;;;5111711;28;20542;-79
2021/04/26 03:17:27;;;;;;;5.30;4.72;;;6.30;51.60;;;;;;5100520;28;20242;-79
2021/04/26 03:19:55;;;;;;;7.43;5.70;;;6.10;51.40;;;;;;5092757;28;20842;-79
2021/04/26 03:22:23;;;;;;;8.57;6.25;;;6.00;51.40;;;;;;5093963;28;20202;-79
2021/04/26 03:24:49;;;;;;;10.82;6.68;;;6.00;52.00;;;;;;5091639;28;20206;-79
2021/04/26 03:27:19;;;;;;;5.57;5.07;;;6.10;52.00;;;;;;5100073;28;20214;-79
2021/04/26 03:29:50;;;;;;;9.25;6.60;;;6.20;51.60;;;;;;5092329;28;20234;-79
2021/04/26 03:32:17;;;;;;;7.75;5.68;;;6.20;52.00;;;;;;5099306;28;20565;-79
2021/04/26 03:34:46;;;;;;;6.15;5.50;;;6.10;52.00;;;;;;5091276;28;20210;-79
2021/04/26 03:37:14;;;;;;;6.40;5.78;;;6.10;51.70;;;;;;5092075;28;20207;-79
2021/04/26 03:39:41;;;;;;;11.68;7.10;;;6.10;51.70;;;;;;5069769;28;20199;-79
2021/04/26 03:42:08;;;;;;;8.27;6.80;;;6.10;52.00;;;;;;5087823;28;20699;-79
2021/04/26 03:44:35;;;;;;;8.00;6.38;;;5.90;51.50;;;;;;5109714;28;20244;-79
2021/04/26 03:47:04;;;;;;;9.55;6.00;;;5.90;51.80;;;;;;5103983;28;20260;-79
2021/04/26 03:49:31;;;;;;;6.40;5.78;;;6.00;52.30;;;;;;5090997;28;20214;-79
2021/04/26 03:51:57;;;;;;;7.40;6.57;;;5.90;52.70;;;;;;5104197;28;20202;-78
2021/04/26 03:54:24;;;;;;;6.40;5.82;;;5.60;52.90;;;;;;5104637;28;20604;-79
2021/04/26 03:56:50;;;;;;;10.00;5.78;;;5.60;53.50;;;;;;5090538;28;20253;-78
2021/04/26 03:59:17;;;;;;;9.27;5.85;;;5.50;53.50;;;;;;5106658;28;20720;-79
2021/04/26 04:01:45;;;;;;;8.38;6.68;;;5.60;53.80;;;;;;5110925;28;20629;-79
2021/04/26 04:04:12;;;;;;;11.80;7.15;;;5.60;54.00;;;;;;5109330;28;20281;-79
2021/04/26 04:06:38;;;;;;;6.70;5.72;;;5.60;53.40;;;;;;5093918;28;20391;-79
2021/04/26 04:09:07;;;;;;;7.68;5.47;;;5.50;53.20;;;;;;5102803;28;20227;-79
2021/04/26 04:11:33;;;;;;;8.02;5.47;;;5.50;53.60;;;;;;5110314;28;20202;-79
2021/04/26 04:14:00;;;;;;;7.97;7.15;;;5.50;54.20;;;;;;5104857;28;20202;-79
2021/04/26 04:16:28;;;;;;;10.82;6.03;;;5.50;54.10;;;;;;5096158;28;20276;-79
2021/04/26 04:18:55;;;;;;;7.10;6.40;;;5.50;53.10;;;;;;5095701;28;20199;-79
2021/04/26 04:21:22;;;;;;;6.57;5.70;;;5.40;52.60;;;;;;5089684;28;20225;-79
2021/04/26 04:23:48;;;;;;;8.75;6.38;;;5.40;53.30;;;;;;5097931;28;20198;-79
2021/04/26 04:26:15;;;;;;;5.65;5.13;;;5.50;53.20;;;;;;5097476;28;20202;-79
2021/04/26 04:28:41;;;;;;;8.43;5.47;;;5.50;52.80;;;;;;5108068;28;20198;-79
2021/04/26 04:31:07;;;;;;;6.25;5.55;;;5.60;52.50;;;;;;5104485;28;20234;-79
2021/04/26 04:33:34;;;;;;;7.28;5.45;;;5.70;52.60;;;;;;5102817;28;20206;-79
2021/04/26 04:36:01;;;;;;;8.27;5.85;;;5.70;52.40;;;;;;5102528;28;20209;-80
2021/04/26 04:38:28;;;;;;;6.45;5.78;;;5.70;52.30;;;;;;5091177;28;20237;-79
2021/04/26 04:40:55;;;;;;;8.40;6.07;;;5.70;52.50;;;;;;5108017;28;20202;-79
2021/04/26 04:43:21;;;;;;;10.45;6.20;;;5.70;52.50;;;;;;5106845;28;20206;-79
2021/04/26 04:45:48;;;;;;;12.07;6.60;;;5.60;52.50;;;;;;5110061;28;20198;-79
2021/04/26 04:48:15;;;;;;;8.73;5.97;;;5.60;52.80;;;;;;5096695;28;20281;-79
2021/04/26 04:50:42;;;;;;;7.07;5.40;;;5.70;52.90;;;;;;5084962;28;20258;-79
2021/04/26 04:53:09;;;;;;;6.95;5.78;;;5.80;52.80;;;;;;5101258;28;20207;-79
2021/04/26 04:55:36;;;;;;;7.35;5.47;;;5.80;52.70;;;;;;5090020;28;20202;-79
2021/04/26 04:58:02;;;;;;;11.95;5.70;;;5.90;52.80;;;;;;5076492;28;20215;-80
2021/04/26 05:00:28;;;;;;;11.80;6.93;;;5.90;52.10;;;;;;5081999;28;20763;-79
2021/04/26 05:02:55;;;;;;;6.28;5.55;;;6.00;51.90;;;;;;5082999;28;20209;-79
2021/04/26 05:05:21;;;;;;;7.28;6.50;;;6.10;51.40;;;;;;5110246;28;20557;-79
2021/04/26 05:07:48;;;;;;;6.07;5.47;;;6.20;51.40;;;;;;5104242;28;20226;-79
2021/04/26 05:10:15;;;;;;;6.15;5.60;;;6.20;50.60;;;;;;5109488;28;20667;-79
2021/04/26 05:12:42;;;;;;;6.82;6.22;;;6.20;51.00;;;;;;5102512;28;20227;-79
2021/04/26 05:15:09;;;;;;;5.43;4.93;;;6.30;50.30;;;;;;5090811;28;20207;-79
2021/04/26 05:17:35;;;;;;;6.90;5.30;;;6.30;49.90;;;;;;5102577;28;20210;-79
2021/04/26 05:20:03;;;;;;;6.68;4.95;;;6.50;49.80;;;;;;5092408;28;20226;-80
2021/04/26 05:22:30;;;;;;;7.63;5.40;;;6.70;49.50;;;;;;5089767;28;20245;-80
2021/04/26 05:24:57;;;;;;;9.07;6.05;;;6.80;48.80;;;;;;5104566;28;20194;-80
2021/04/26 05:27:24;;;;;;;5.47;4.97;;;6.90;49.30;;;;;;5099414;28;20241;-80
2021/04/26 05:29:50;;;;;;;11.35;5.65;;;6.90;48.50;;;;;;5101471;28;20201;-81
2021/04/26 05:32:17;;;;;;;5.55;5.05;;;7.00;48.10;;;;;;5077549;28;20202;-81
2021/04/26 05:34:43;;;;;;;5.70;5.20;;;7.10;48.00;;;;;;5103626;28;20217;-80
2021/04/26 05:37:10;;;;;;;7.85;4.53;;;7.10;48.10;;;;;;5095554;28;20202;-81
2021/04/26 05:39:36;;;;;;;7.70;5.70;;;7.20;47.50;;;;;;5093166;28;20206;-80
2021/04/26 05:42:03;;;;;;;6.13;5.22;;;7.40;48.10;;;;;;5095377;28;20237;-81
2021/04/26 05:44:31;;;;;;;9.63;5.85;;;7.30;48.00;;;;;;5106273;28;20208;-79
2021/04/26 05:46:57;;;;;;;6.05;5.55;;;7.40;47.40;;;;;;5112276;28;20244;-79
2021/04/26 05:49:23;;;;;;;6.93;5.43;;;7.50;47.50;;;;;;5111328;28;20252;-81
2021/04/26 05:51:50;;;;;;;6.80;5.50;;;7.70;48.10;;;;;;5081008;28;20209;-82
2021/04/26 05:54:17;;;;;;;12.80;5.82;;;7.70;48.10;;;;;;5107845;28;20200;-79
2021/04/26 05:56:44;;;;;;;5.85;5.30;;;7.70;48.00;;;;;;5093351;28;20198;-79
2021/04/26 05:59:10;;;;;;;5.35;4.95;;;7.80;47.70;;;;;;5091551;28;20202;-79
2021/04/26 06:01:37;;;;;;;10.45;6.05;;;7.80;47.50;;;;;;5091488;28;20206;-79
2021/04/26 06:04:04;;;;;;;9.07;6.28;;;7.70;47.60;;;;;;5096731;28;20652;-79
2021/04/26 06:06:31;;;;;;;8.07;5.72;;;7.90;47.30;;;;;;5094484;28;20202;-78
2021/04/26 06:08:57;;;;;;;6.70;5.18;;;8.00;47.30;;;;;;5100065;28;20222;-78
2021/04/26 06:11:24;;;;;;;8.90;5.45;;;8.10;47.10;;;;;;5102495;28;20189;-79
2021/04/26 06:13:50;;;;;;;8.82;5.95;;;8.10;46.80;;;;;;5088916;28;20202;-79
2021/04/26 06:16:17;;;;;;;7.53;5.88;;;8.20;47.10;;;;;;5106621;28;20202;-80
2021/04/26 06:18:44;;;;;;;7.45;5.20;;;8.40;46.20;;;;;;5093826;28;20233;-79
2021/04/26 06:21:11;;;;;;;7.20;5.47;;;8.20;46.40;;;;;;5103805;28;20662;-80
2021/04/26 06:23:37;;;;;;;9.07;6.03;;;8.10;47.30;;;;;;5101998;28;20202;-80
2021/04/26 06:26:03;;;;;;;7.43;6.35;;;8.30;47.20;;;;;;5090793;28;20191;-80
2021/04/26 06:28:30;;;;;;;6.78;5.80;;;8.50;46.60;;;;;;5090493;28;20634;-79
2021/04/26 06:30:56;;;;;;;6.72;5.97;;;8.60;46.60;;;;;;5094957;28;20206;-80
2021/04/26 06:33:23;;;;;;;10.30;5.85;;;8.60;46.70;;;;;;5088345;28;20676;-79
2021/04/26 06:35:52;;;;;;;7.05;5.40;;;8.60;46.80;;;;;;5099976;28;20210;-79
2021/04/26 06:38:19;;;;;;;6.90;5.88;;;8.80;46.00;;;;;;5092968;28;20284;-80
2021/04/26 06:40:46;;;;;;;7.53;6.47;;;8.90;45.90;;;;;;5092275;28;20547;-81
2021/04/26 06:43:14;;;;;;;7.95;6.18;;;9.00;46.10;;;;;;5108671;28;20206;-81
2021/04/26 06:45:41;;;;;;;7.85;5.90;;;9.10;45.90;;;;;;5107531;28;20224;-81
2021/04/26 06:48:07;;;;;;;6.32;5.72;;;9.20;45.30;;;;;;5093155;28;20199;-82
2021/04/26 06:50:34;;;;;;;6.15;5.55;;;9.00;45.20;;;;;;5088832;28;20212;-81
2021/04/26 06:53:02;;;;;;;10.57;6.35;;;9.10;45.00;;;;;;5104071;28;20545;-81
2021/04/26 06:55:29;;;;;;;10.27;5.72;;;9.30;45.40;;;;;;5100415;28;20221;-82
2021/04/26 06:57:55;;;;;;;6.93;6.22;;;9.50;45.30;;;;;;5094818;28;20221;-81
2021/04/26 07:00:23;;;;;;;5.97;5.38;;;9.50;45.00;;;;;;5110733;28;20213;-81
2021/04/26 07:02:50;;;;;;;8.05;6.45;;;9.50;45.30;;;;;;5103805;28;20571;-81
2021/04/26 07:05:17;;;;;;;6.82;6.10;;;9.60;44.90;;;;;;5092655;28;20242;-81
2021/04/26 07:07:44;;;;;;;7.32;6.63;;;9.60;45.20;;;;;;5096111;28;20201;-81
2021/04/26 07:10:12;;;;;;;6.25;5.55;;;9.80;45.10;;;;;;5093395;28;20256;-81
2021/04/26 07:12:38;;;;;;;8.07;6.30;;;9.80;44.50;;;;;;5097973;28;20195;-81
2021/04/26 07:15:07;;;;;;;6.88;6.15;;;9.90;44.70;;;;;;5106164;28;20197;-81
2021/04/26 07:17:34;;;;;;;6.65;6.05;;;10.00;43.60;;;;;;5095287;28;20205;-81
2021/04/26 07:20:00;;;;;;;7.60;6.90;;;10.20;43.60;;;;;;5105545;28;20230;-81
2021/04/26 07:22:28;;;;;;;6.90;6.15;;;10.10;43.80;;;;;;5101405;28;20729;-80
2021/04/26 07:24:55;;;;;;;7.13;5.85;;;9.70;44.00;;;;;;5091227;28;20198;-80
2021/04/26 07:27:22;;;;;;;9.60;6.63;;;9.80;45.30;;;;;;5101551;28;20216;-81
2021/04/26 07:29:48;;;;;;;6.82;6.20;;;10.00;44.60;;;;;;5106836;28;20198;-81
2021/04/26 07:32:15;;;;;;;7.30;6.45;;;10.20;44.80;;;;;;5093886;28;20224;-81
2021/04/26 07:34:42;;;;;;;7.53;6.70;;;10.30;44.60;;;;;;5102303;28;20194;-81
2021/04/26 07:37:08;;;;;;;8.70;6.53;;;10.30;44.20;;;;;;5091021;28;20214;-81
2021/04/26 07:39:36;;;;;;;9.63;6.55;;;10.40;44.20;;;;;;5094997;28;20194;-80
2021/04/26 07:42:05;;;;;;;9.52;6.25;;;10.40;44.10;;;;;;5098150;28;20318;-81
2021/04/26 07:44:43;;;;;;;6.57;5.60;;;10.20;44.00;;;;;;5105055;28;20201;-81
2021/04/26 07:47:09;;;;;;;6.53;5.85;;;10.50;44.00;;;;;;5092506;28;20190;-81
2021/04/26 07:49:36;;;;;;;8.65;6.03;;;10.80;43.40;;;;;;5107787;28;20197;-81
2021/04/26 07:52:03;;;;;;;8.75;6.10;;;10.80;43.80;;;;;;5097752;28;20198;-81
2021/04/26 07:54:29;;;;;;;7.25;6.10;;;11.10;43.50;;;;;;5095889;28;20198;-82
2021/04/26 07:56:56;;;;;;;7.47;6.60;;;11.40;43.30;;;;;;5089453;28;20195;-80
2021/04/26 07:59:23;;;;;;;6.55;5.90;;;11.50;43.10;;;;;;5092140;28;20531;-81
2021/04/26 08:01:50;;;;;;;6.28;5.75;;;11.60;42.80;;;;;;5107364;28;20245;-82
2021/04/26 08:04:17;;;;;;;6.88;6.28;;;11.70;43.20;;;;;;5094131;28;20194;-80
2021/04/26 08:06:43;;;;;;;7.32;6.50;;;11.70;42.30;;;;;;5104002;28;20213;-81
2021/04/26 08:09:10;;;;;;;6.63;6.03;;;11.80;42.40;;;;;;5099663;28;20242;-81
2021/04/26 08:11:36;;;;;;;9.85;6.75;;;11.70;42.50;;;;;;5098684;28;20202;-81
2021/04/26 08:14:03;;;;;;;6.70;6.03;;;11.60;41.80;;;;;;5092568;28;20202;-80
2021/04/26 08:16:29;;;;;;;9.75;5.90;;;11.80;42.50;;;;;;5089174;28;20195;-82
2021/04/26 08:18:57;;;;;;;6.13;5.15;;;11.90;41.80;;;;;;5089443;28;20218;-81
2021/04/26 08:21:24;;;;;;;6.25;5.75;;;11.90;40.80;;;;;;5088670;28;20198;-82
2021/04/26 08:23:51;;;;;;;9.65;7.03;;;12.10;41.50;;;;;;5093645;28;20194;-81
2021/04/26 08:26:17;;;;;;;9.95;6.75;;;11.60;40.90;;;;;;5090141;28;20301;-81
2021/04/26 08:28:44;;;;;;;7.55;6.05;;;11.40;43.40;;;;;;5094205;28;20209;-80
2021/04/26 08:31:10;;;;;;;6.75;6.13;;;11.80;43.30;;;;;;5091614;28;20901;-81
2021/04/26 08:33:39;;;;;;;7.50;6.80;;;12.20;42.20;;;;;;5090015;28;20560;-80
2021/04/26 08:36:07;;;;;;;7.53;6.60;;;12.40;41.80;;;;;;5091603;28;20617;-81
2021/04/26 08:38:34;;;;;;;6.60;6.00;;;12.70;41.50;;;;;;5099400;28;20221;-80
2021/04/26 08:41:01;;;;;;;6.63;6.05;;;12.50;40.90;;;;;;5090994;28;20639;-81
2021/04/26 08:43:29;;;;;;;6.50;5.90;;;12.70;41.20;;;;;;5099517;28;20205;-80
2021/04/26 08:45:58;;;;;;;8.00;6.20;;;12.90;41.80;;;;;;5097597;28;20627;-81
2021/04/26 08:48:28;;;;;;;7.53;6.83;;;13.00;40.80;;;;;;5095578;28;20659;-83
2021/04/26 08:50:55;;;;;;;8.80;7.00;;;13.10;40.70;;;;;;5089930;28;20659;-82
2021/04/26 08:53:22;;;;;;;8.00;6.43;;;13.30;40.70;;;;;;5089029;28;20617;-82
2021/04/26 08:55:49;;;;;;;9.73;7.00;;;13.40;39.80;;;;;;5089887;28;20620;-82
2021/04/26 08:58:15;;;;;;;8.20;6.47;;;13.10;40.10;;;;;;5097333;28;20644;-82
2021/04/26 09:00:42;;;;;;;10.10;6.30;;;12.90;40.60;;;;;;5103592;28;20979;-81
2021/04/26 09:03:09;;;;;;;10.03;5.93;;;12.70;41.30;;;;;;5095353;28;21004;-81
2021/04/26 09:05:37;;;;;;;7.00;6.30;;;12.30;41.10;;;;;;5095170;28;20616;-81
2021/04/26 09:08:07;;;;;;;6.60;5.80;;;12.30;42.00;;;;;;5114518;28;20623;-82
2021/04/26 09:10:44;;;;;;;8.13;7.32;;;12.70;42.70;;;;;;5101869;28;20656;-82
2021/04/26 09:13:29;;;;;;;10.37;7.20;;;13.10;42.60;;;;;;5099131;28;20201;-82
2021/04/26 09:15:57;;;;;;;7.43;6.60;;;12.70;40.90;;;;;;5094110;28;20629;-81
2021/04/26 09:18:54;;;;;;;6.43;5.93;;;12.40;41.50;;;;;;5099670;28;20667;-81
2021/04/26 09:21:24;;;;;;;9.67;6.17;;;12.50;41.00;;;;;;5089512;28;20616;-80
2021/04/26 09:24:12;;;;;;;10.07;6.73;;;12.30;41.50;;;;;;5097809;28;20717;-81
2021/04/26 09:26:40;;;;;;;8.00;6.90;;;12.20;41.60;;;;;;5114427;28;20653;-80
2021/04/26 09:29:16;;;;;;;8.80;6.83;;;12.60;42.00;;;;;;5109199;28;20616;-82
2021/04/26 09:31:58;;;;;;;7.43;6.43;;;12.60;41.50;;;;;;5114241;28;21153;-79
2021/04/26 09:34:32;;;;;;;7.50;6.50;;;12.20;41.60;;;;;;5111285;28;20630;-81
2021/04/26 09:37:20;;;;;;;7.20;6.50;;;12.40;41.50;;;;;;5097642;28;21175;-83
2021/04/26 09:40:05;;;;;;;7.73;7.03;;;12.70;42.30;;;;;;5091411;28;20648;-82
2021/04/26 09:42:40;;;;;;;6.80;6.10;;;13.20;41.50;;;;;;5093687;28;21203;-81
2021/04/26 09:45:21;;;;;;;10.33;6.53;;;13.30;40.40;;;;;;5094510;28;20624;-82
2021/04/26 09:47:48;;;;;;;10.20;6.97;;;13.70;41.60;;;;;;5092267;28;20615;-83
2021/04/26 09:50:16;;;;;;;7.43;6.73;;;14.00;40.70;;;;;;5090794;28;20617;-84
2021/04/26 09:52:42;;;;;;;7.00;6.30;;;14.10;40.70;;;;;;5097351;28;20638;-83
2021/04/26 09:55:29;;;;;;;8.60;7.60;;;14.20;40.30;;;;;;5102433;28;20628;-82
2021/04/26 09:57:57;;;;;;;8.50;6.90;;;14.60;40.10;;;;;;5091072;28;20706;-83
2021/04/26 10:00:24;;;;;;;10.37;6.77;;;14.70;39.60;;;;;;5099643;28;20732;-83
2021/04/26 10:02:50;;;;;;;7.10;6.40;;;15.00;40.20;;;;;;5105852;28;20640;-83
2021/04/26 10:05:17;;;;;;;9.10;8.30;;;15.10;40.40;;;;;;5100242;28;21030;-82
2021/04/26 10:07:44;;;;;;;7.50;6.53;;;15.10;38.80;;;;;;5094134;28;20671;-83
2021/04/26 10:10:11;;;;;;;8.13;7.33;;;14.90;39.90;;;;;;5106855;28;20626;-84
2021/04/26 10:12:37;;;;;;;6.87;6.37;;;15.00;39.30;;;;;;5104558;28;20630;-84
2021/04/26 10:15:06;;;;;;;9.23;7.37;;;15.20;40.40;;;;;;5095081;28;20690;-82
2021/04/26 10:17:37;;;;;;;12.20;5.40;;;15.30;39.40;;;;;;5090775;28;20655;-80
2021/04/26 10:20:04;;;;;;;10.53;7.13;;;15.40;39.70;;;;;;5092500;28;20608;-81
2021/04/26 10:22:36;;;;;;;9.40;7.30;;;15.20;38.80;;;;;;5092170;28;20620;-81
2021/04/26 10:25:03;;;;;;;8.63;7.27;;;15.10;38.70;;;;;;5092067;28;20616;-81
2021/04/26 10:27:31;;;;;;;7.73;6.87;;;14.70;38.80;;;;;;5090692;28;20636;-84
2021/04/26 10:30:04;;;;;;;8.40;6.90;;;15.10;38.80;;;;;;5090305;28;20623;-82
2021/04/26 10:32:55;;;;;;;9.67;6.87;;;15.10;37.80;;;;;;5090677;28;20621;-84
2021/04/26 10:35:22;;;;;;;6.73;6.10;;;15.60;38.20;;;;;;5092053;28;20607;-83
2021/04/26 10:37:49;;;;;;;5.93;5.37;;;15.70;36.60;;;;;;5091876;28;21363;-81
2021/04/26 10:40:22;;;;;;;7.70;5.80;;;15.90;35.10;;;;;;5090874;28;20973;-81
2021/04/26 10:42:50;;;;;;;6.80;5.77;;;16.20;35.50;;;;;;5092606;28;20628;-81
2021/04/26 10:45:25;;;;;;;7.43;6.63;;;15.80;35.60;;;;;;5091004;28;20829;-83
2021/04/26 10:48:11;;;;;;;7.17;6.53;;;16.20;37.70;;;;;;5104954;28;20617;-83
2021/04/26 10:50:50;;;;;;;11.03;9.93;;;16.10;36.20;;;;;;5110158;28;20712;-83
2021/04/26 10:53:16;;;;;;;6.50;5.90;;;16.20;35.30;;;;;;5090977;28;20627;-84
2021/04/26 10:55:51;;;;;;;6.80;5.80;;;16.40;33.50;;;;;;5073570;28;20676;-84
2021/04/26 10:58:34;;;;;;;5.80;5.30;;;16.60;33.70;;;;;;5090928;28;20759;-83
2021/04/26 11:01:02;;;;;;;7.07;6.37;;;16.90;34.60;;;;;;5091678;28;21324;-83
2021/04/26 11:03:38;;;;;;;8.00;7.20;;;16.80;35.70;;;;;;5091468;28;20682;-84
2021/04/26 11:06:16;;;;;;;6.53;5.80;;;17.00;34.80;;;;;;5091986;28;20963;-83
2021/04/26 11:08:55;;;;;;;7.07;6.20;;;17.20;36.00;;;;;;5092824;28;20621;-84
2021/04/26 11:11:33;;;;;;;7.77;6.50;;;17.50;36.00;;;;;;5090506;28;20630;-84
2021/04/26 11:14:02;;;;;;;6.97;6.33;;;17.70;35.60;;;;;;5074998;28;20661;-84
2021/04/26 11:16:30;;;;;;;6.67;6.03;;;17.80;36.00;;;;;;5110833;28;20630;-83
2021/04/26 11:19:11;;;;;;;6.43;5.80;;;17.80;34.70;;;;;;5098404;28;20656;-82
2021/04/26 11:21:54;;;;;;;8.77;6.30;;;18.00;35.30;;;;;;5095129;28;20722;-84
2021/04/26 11:25:00;;;;;;;6.63;6.03;;;18.10;34.00;;;;;;5107397;28;20652;-84
2021/04/26 11:27:27;;;;;;;6.17;5.57;;;18.10;33.50;;;;;;5090734;28;20628;-83
2021/04/26 11:30:16;;;;;;;5.97;5.47;;;18.40;32.70;;;;;;5100718;28;20628;-84
2021/04/26 11:33:04;;;;;;;6.60;6.00;;;18.70;32.40;;;;;;5097260;28;21037;-82
2021/04/26 11:35:33;;;;;;;5.93;5.40;;;19.70;34.10;;;;;;5080300;28;20682;-84
2021/04/26 11:38:01;;;;;;;7.00;5.93;;;20.40;32.10;;;;;;5090502;28;20646;-83
2021/04/26 11:40:29;;;;;;;6.70;5.97;;;20.90;31.50;;;;;;5100503;28;20619;-83
2021/04/26 11:43:07;;;;;;;7.53;6.83;;;21.60;31.60;;;;;;5096329;28;21218;-83
2021/04/26 11:45:35;;;;;;;7.53;6.73;;;22.60;31.50;;;;;;5101737;28;20703;-83
2021/04/26 11:48:02;;;;;;;7.60;4.57;;;23.60;29.80;;;;;;5091057;28;20627;-84
2021/04/26 11:50:28;;;;;;;4.83;4.37;;;24.10;27.50;;;;;;5097444;28;21000;-84
2021/04/26 11:52:55;;;;;;;4.90;4.60;;;24.80;27.30;;;;;;5090448;28;20604;-83
2021/04/26 11:55:27;;;;;;;6.10;5.60;;;26.40;26.60;;;;;;5103262;28;20635;-84
2021/04/26 11:57:55;;;;;;;6.00;5.50;;;28.20;25.20;;;;;;5111162;28;20654;-83
2021/04/26 12:00:26;;;;;;;4.70;4.40;;;30.00;23.70;;;;;;5107334;28;20624;-83
2021/04/26 12:03:00;;;;;;;5.40;4.90;;;31.80;22.80;;;;;;5109556;28;20643;-84
2021/04/26 12:05:28;;;;;;;5.33;4.83;;;33.70;22.00;;;;;;5105200;28;20612;-82
2021/04/26 12:07:56;;;;;;;7.10;5.93;;;36.50;21.60;;;;;;5107325;28;20996;-83
2021/04/26 12:10:24;;;;;;;5.83;5.43;;;37.30;20.90;;;;;;5103682;28;20623;-82
2021/04/26 12:12:54;;;;;;;5.57;5.17;;;39.00;20.10;;;;;;5109855;28;21262;-81
2021/04/26 12:15:22;;;;;;;6.13;5.40;;;37.10;20.30;;;;;;5097997;28;20985;-82
2021/04/26 12:17:51;;;;;;;5.97;5.47;;;38.30;20.10;;;;;;5106999;28;21634;-83
2021/04/26 12:20:20;;;;;;;5.83;5.33;;;39.70;19.70;;;;;;5099580;28;20743;-82
2021/04/26 12:22:49;;;;;;;5.27;4.87;;;39.00;20.00;;;;;;5089429;28;20678;-82
2021/04/26 12:25:18;;;;;;;5.47;5.07;;;39.30;19.60;;;;;;5073344;28;21007;-82
2021/04/26 12:27:45;;;;;;;6.00;4.77;;;38.10;19.10;;;;;;5089686;28;21216;-83
2021/04/26 12:30:18;;;;;;;4.93;4.30;;;39.40;19.30;;;;;;5094388;28;20983;-83
2021/04/26 12:32:45;;;;;;;5.70;5.30;;;38.30;18.80;;;;;;5089264;28;20674;-83
2021/04/26 12:35:12;;;;;;;4.77;4.47;;;39.00;18.70;;;;;;5097953;28;21199;-83
2021/04/26 12:37:40;;;;;;;7.70;5.27;;;38.00;19.30;;;;;;5090405;28;20681;-84
2021/04/26 12:40:21;;;;;;;5.17;4.67;;;38.10;18.90;;;;;;5093084;28;20620;-84
2021/04/26 12:42:49;;;;;;;4.50;4.20;;;38.80;18.60;;;;;;5094649;28;20646;-83
2021/04/26 12:45:21;;;;;;;6.70;5.50;;;38.80;18.90;;;;;;5095415;28;20632;-83
2021/04/26 12:47:53;;;;;;;6.47;5.87;;;38.70;19.10;;;;;;5094952;28;20988;-83
2021/04/26 12:50:24;;;;;;;6.27;5.70;;;39.70;19.20;;;;;;5100853;28;21164;-83
2021/04/26 12:53:12;;;;;;;4.73;4.43;;;38.70;19.50;;;;;;5094682;28;20616;-83
2021/04/26 12:55:42;;;;;;;4.50;4.10;;;38.60;19.10;;;;;;5110327;28;20692;-83
2021/04/26 12:58:12;;;;;;;4.70;4.33;;;37.70;18.90;;;;;;5115210;28;20596;-85
2021/04/26 13:00:41;;;;;;;5.07;4.60;;;38.80;18.40;;;;;;5110182;28;20719;-83
2021/04/26 13:03:35;;;;;;;5.03;4.73;;;38.60;19.10;;;;;;5114355;28;20627;-83
2021/04/26 13:06:05;;;;;;;5.00;4.60;;;38.30;18.50;;;;;;5064059;28;20700;-84